Miller, SD (57362)

9:20 PM CST on February 28, 2015 (GMT -0600)
RAWS HURON SD US | Change Station
CLOSE
Current Station
Personal Weather Station
Location: Wessington, SD
Elevation: 1875 ft
Nearby Weather Stations

Elev 1875 ft 44.24 °N, 98.77 °W | Updated 39 minutes ago

Partly Cloudy
Partly Cloudy
15 °F
Feels Like 6 °F
N
6
Wind Variable Wind from NW
Gusts 12.0 mph

Today
High -- | Low -- °F
--% Chance of Precip.
Yesterday
High -- | Low -- °F
Precip. -- in
7:15 AM 6:22 PM
Waxing Gibbous, 82% visible
Pressure 30.29 in
Visibility 10.0 miles
Clouds Clear
Windchill 6 °F
Dew Point 12 °F
Humidity 87%
Rainfall 0.00 in
Snow Depth Not available.
UV 0 out of 12
Pollen .40 out of 12
Air Quality Not available.
Flu Activity Not available.
METAR KHON 010255Z AUTO 32009KT 10SM CLR M11/M12 A3021 RMK AO2 SLP257 T11061122 51023

More Conditions Fewer Conditions

Pressure 30.29 in
Visibility 10.0 miles
Clouds Clear
Windchill 6 °F
Dew Point 12 °F
Humidity 87%
Rainfall 0.00 in
Snow Depth Not available.
UV 0 out of 12
Pollen .40 out of 12
Air Quality Not available.
Flu Activity Not available.
METAR KHON 010255Z AUTO 32009KT 10SM CLR M11/M12 A3021 RMK AO2 SLP257 T11061122 51023

More Conditions Fewer Conditions

10-Day Weather Forecast

Almanac

Astronomy

Feb. 28, 2015 Rise Set
Actual Time
Civil Twilight
Nautical Twilight
Astronomical Twilight
Moon
Length of Visible Light
Length of Day
Tomorrow will be .
, % of the Moon is Illuminated

Today's Extremes

State Highs State Lows

Community

WunderPhotos

Upload Photos

1,801,282 photos uploaded!

WunderBlogs® & News

Nearby

Air Quality

  Air Quality AQ Index Pollutant
Not available.

Snow Depth

Station Depth Elevation

Earthquake Activity

City Distance Mag. Time & Date
Minimum magnitude displayed is 2.5.

Coastal Water Temperatures

Place Temperature

Nearby Weather Stations